Time;durP1;ratioP1;P1;durP2;ratioP2;P2;SDS_P1;SDS_P2;PMS_P1;PMS_P2;Temp;Humidity;BMP_temperature;BMP_pressure;BME280_temperature;BME280_humidity;BME280_pressure;Samples;Min_cycle;Max_cycle;Signal;HPM_P1;HPM_P2
2022/07/25 00:00:04;;;;;;;;;;;21.90;99.90;;;;;;5144484;28;19951;-72
2022/07/25 00:02:31;;;;;;;;;;;21.80;99.90;;;;;;5123447;28;20230;-73
2022/07/25 00:04:59;;;;;;;;;;;21.80;99.90;;;;;;5123378;28;19927;-72
2022/07/25 00:07:26;;;;;;;;;;;21.70;99.90;;;;;;5126377;28;20229;-73
2022/07/25 00:09:53;;;;;;;;;;;21.70;99.90;;;;;;5144213;28;19991;-72
2022/07/25 00:12:19;;;;;;;;;;;21.70;99.90;;;;;;5143162;27;19984;-72
2022/07/25 00:14:46;;;;;;;;;;;21.70;99.90;;;;;;5147531;27;19956;-72
2022/07/25 00:17:13;;;;;;;;;;;21.60;99.90;;;;;;5148078;27;19999;-72
2022/07/25 00:19:40;;;;;;;;;;;21.60;99.90;;;;;;5147910;27;19928;-73
2022/07/25 00:22:08;;;;;;;;;;;21.50;99.90;;;;;;5148158;27;19951;-72
2022/07/25 00:24:34;;;;;;;;;;;21.50;99.90;;;;;;5126573;28;19951;-72
2022/07/25 00:27:10;;;;;;;;;;;21.50;99.90;;;;;;5127198;28;19955;-72
2022/07/25 00:29:36;;;;;;;;;;;21.50;99.90;;;;;;5127008;28;19959;-72
2022/07/25 00:32:03;;;;;;;;;;;21.40;99.90;;;;;;5127036;28;19958;-71
2022/07/25 00:34:30;;;;;;;;;;;21.30;99.90;;;;;;5126557;28;19951;-72
2022/07/25 00:36:57;;;;;;;;;;;21.30;99.90;;;;;;5127160;28;19951;-72
2022/07/25 00:39:25;;;;;;;;;;;21.20;99.90;;;;;;5126915;28;19988;-72
2022/07/25 00:41:52;;;;;;;;;;;21.20;99.90;;;;;;5127049;28;20175;-72
2022/07/25 00:44:22;;;;;;;;;;;21.20;99.90;;;;;;5132361;27;19983;-72
2022/07/25 00:46:49;;;;;;;;;;;21.20;99.90;;;;;;5147154;27;20219;-71
2022/07/25 00:49:15;;;;;;;;;;;21.10;99.90;;;;;;5147409;27;19958;-71
2022/07/25 00:51:42;;;;;;;;;;;21.00;99.90;;;;;;5147488;27;20114;-71
2022/07/25 00:54:09;;;;;;;;;;;21.00;99.90;;;;;;5146579;27;19995;-72
2022/07/25 00:56:37;;;;;;;;;;;20.90;99.90;;;;;;5147105;27;19954;-71
2022/07/25 00:59:04;;;;;;;;;;;20.90;99.90;;;;;;5147653;27;19926;-72
2022/07/25 01:01:31;;;;;;;;;;;20.90;99.90;;;;;;5147129;27;19982;-72
2022/07/25 01:03:58;;;;;;;;;;;20.80;99.90;;;;;;5146568;27;19954;-72
2022/07/25 01:06:25;;;;;;;;;;;20.80;99.90;;;;;;5147058;27;20282;-72
2022/07/25 01:08:55;;;;;;;;;;;20.70;99.90;;;;;;5145993;27;19919;-72
2022/07/25 01:11:23;;;;;;;;;;;20.70;99.90;;;;;;5143461;27;19923;-72
2022/07/25 01:13:51;;;;;;;;;;;20.60;99.90;;;;;;5144049;27;19919;-72
2022/07/25 01:16:18;;;;;;;;;;;20.60;99.90;;;;;;5141751;27;20170;-72
2022/07/25 01:18:44;;;;;;;;;;;20.50;99.90;;;;;;5144342;27;19955;-72
2022/07/25 01:21:13;;;;;;;;;;;20.50;99.90;;;;;;5142829;27;19920;-73
2022/07/25 01:23:40;;;;;;;;;;;20.50;99.90;;;;;;5144600;27;20141;-72
2022/07/25 01:26:06;;;;;;;;;;;20.40;99.90;;;;;;5144984;27;19919;-72
2022/07/25 01:28:33;;;;;;;;;;;20.40;99.90;;;;;;5134251;27;19975;-72
2022/07/25 01:31:00;;;;;;;;;;;20.40;99.90;;;;;;5136025;27;19926;-72
2022/07/25 01:33:26;;;;;;;;;;;20.40;99.90;;;;;;5136887;27;19927;-72
2022/07/25 01:35:53;;;;;;;;;;;20.30;99.90;;;;;;5146501;27;19919;-72
2022/07/25 01:38:21;;;;;;;;;;;20.30;99.90;;;;;;5145457;27;19923;-72
2022/07/25 01:40:48;;;;;;;;;;;20.20;99.90;;;;;;5135676;27;19920;-72
2022/07/25 01:43:14;;;;;;;;;;;20.20;99.90;;;;;;5142458;27;19955;-72
2022/07/25 01:45:41;;;;;;;;;;;20.10;99.90;;;;;;5145906;27;19920;-72
2022/07/25 01:48:08;;;;;;;;;;;20.10;99.90;;;;;;5145748;27;19962;-72
2022/07/25 01:50:34;;;;;;;;;;;20.10;99.90;;;;;;5145403;27;19920;-72
2022/07/25 01:53:01;;;;;;;;;;;20.00;99.90;;;;;;5145118;27;19981;-72
2022/07/25 01:55:29;;;;;;;;;;;20.00;99.90;;;;;;5145807;27;19962;-72
2022/07/25 01:57:56;;;;;;;;;;;19.90;99.90;;;;;;5145043;27;19966;-72
2022/07/25 02:00:22;;;;;;;;;;;19.90;99.90;;;;;;5145273;27;19994;-72
2022/07/25 02:03:28;;;;;;;;;;;19.90;99.90;;;;;;5141804;27;20010;-72
2022/07/25 02:05:36;;;;;;;;;;;19.80;99.90;;;;;;5133179;27;19943;-72
2022/07/25 02:08:02;;;;;;;;;;;19.80;99.90;;;;;;5124754;28;19919;-72
2022/07/25 02:10:30;;;;;;;;;;;19.70;99.90;;;;;;5125001;28;19928;-72
2022/07/25 02:12:57;;;;;;;;;;;19.70;99.90;;;;;;5121825;28;20235;-72
2022/07/25 02:15:24;;;;;;;;;;;19.70;99.90;;;;;;5124536;28;19927;-72
2022/07/25 02:17:50;;;;;;;;;;;19.70;99.90;;;;;;5133328;27;19954;-72
2022/07/25 02:20:17;;;;;;;;;;;19.70;99.90;;;;;;5145168;27;19920;-72
2022/07/25 02:22:44;;;;;;;;;;;19.70;99.90;;;;;;5144839;27;20249;-72
2022/07/25 02:25:10;;;;;;;;;;;19.70;99.90;;;;;;5145052;27;19991;-72
2022/07/25 02:27:38;;;;;;;;;;;19.60;99.90;;;;;;5145662;27;20237;-72
2022/07/25 02:30:06;;;;;;;;;;;19.60;99.90;;;;;;5145311;27;19947;-72
2022/07/25 02:32:32;;;;;;;;;;;19.60;99.90;;;;;;5144266;27;19950;-73
2022/07/25 02:34:59;;;;;;;;;;;19.60;99.90;;;;;;5144536;27;19927;-72
2022/07/25 02:37:26;;;;;;;;;;;19.60;99.90;;;;;;5145121;27;19926;-72
2022/07/25 02:39:52;;;;;;;;;;;19.60;99.90;;;;;;5144932;27;19991;-72
2022/07/25 02:42:19;;;;;;;;;;;19.50;99.90;;;;;;5145091;27;19926;-72
2022/07/25 02:44:47;;;;;;;;;;;19.50;99.90;;;;;;5143983;27;19919;-72
2022/07/25 02:47:14;;;;;;;;;;;19.40;99.90;;;;;;5144435;27;19919;-73
2022/07/25 02:49:40;;;;;;;;;;;19.40;99.90;;;;;;5144978;27;19965;-72
2022/07/25 02:52:07;;;;;;;;;;;19.30;99.90;;;;;;5144761;27;19927;-72
2022/07/25 02:54:33;;;;;;;;;;;19.30;99.90;;;;;;5143823;27;19928;-72
2022/07/25 02:57:00;;;;;;;;;;;19.20;99.90;;;;;;5144444;27;19951;-72
2022/07/25 02:59:27;;;;;;;;;;;19.20;99.90;;;;;;5144753;27;19920;-73
2022/07/25 03:01:55;;;;;;;;;;;19.20;99.90;;;;;;5144093;27;19943;-72
2022/07/25 03:04:21;;;;;;;;;;;19.10;99.90;;;;;;5144003;27;20172;-72
2022/07/25 03:06:48;;;;;;;;;;;19.00;99.90;;;;;;5144550;27;19962;-72
2022/07/25 03:09:15;;;;;;;;;;;19.00;99.90;;;;;;5144784;27;19920;-72
2022/07/25 03:11:41;;;;;;;;;;;19.00;99.90;;;;;;5142107;27;20181;-72
2022/07/25 03:14:08;;;;;;;;;;;19.00;99.90;;;;;;5143154;28;19965;-72
2022/07/25 03:16:35;;;;;;;;;;;19.00;99.90;;;;;;5140470;28;19959;-72
2022/07/25 03:19:03;;;;;;;;;;;19.00;99.90;;;;;;5144656;28;19926;-72
2022/07/25 03:21:30;;;;;;;;;;;19.00;99.90;;;;;;5144507;28;19982;-72
2022/07/25 03:23:56;;;;;;;;;;;19.00;99.90;;;;;;5143727;27;19919;-72
2022/07/25 03:26:23;;;;;;;;;;;18.90;99.90;;;;;;5144651;28;19954;-72
2022/07/25 03:28:50;;;;;;;;;;;19.00;99.90;;;;;;5140364;28;19926;-72
2022/07/25 03:31:16;;;;;;;;;;;19.00;99.90;;;;;;5144262;28;19978;-72
2022/07/25 03:33:43;;;;;;;;;;;18.90;99.90;;;;;;5130208;28;19927;-72
2022/07/25 03:36:11;;;;;;;;;;;18.90;99.90;;;;;;5127068;28;19919;-72
2022/07/25 03:38:38;;;;;;;;;;;18.80;99.90;;;;;;5139890;28;19955;-72
2022/07/25 03:41:04;;;;;;;;;;;18.80;99.90;;;;;;5123581;28;19920;-72
2022/07/25 03:43:31;;;;;;;;;;;18.80;99.90;;;;;;5137048;28;20145;-72
2022/07/25 03:45:58;;;;;;;;;;;18.80;99.90;;;;;;5144062;27;19983;-72
2022/07/25 03:48:24;;;;;;;;;;;18.80;99.90;;;;;;5147560;27;19920;-72
2022/07/25 03:50:51;;;;;;;;;;;18.80;99.90;;;;;;5148223;27;19954;-72
2022/07/25 03:53:19;;;;;;;;;;;18.80;99.90;;;;;;5145972;27;19920;-72
2022/07/25 03:55:46;;;;;;;;;;;18.70;99.90;;;;;;5127536;28;19983;-72
2022/07/25 03:58:12;;;;;;;;;;;18.70;99.90;;;;;;5146642;27;20150;-72
2022/07/25 04:00:39;;;;;;;;;;;18.70;99.90;;;;;;5148007;27;20233;-72
2022/07/25 04:03:06;;;;;;;;;;;18.60;99.90;;;;;;5147723;27;19954;-72
2022/07/25 04:05:32;;;;;;;;;;;18.60;99.90;;;;;;5147831;27;19934;-72
2022/07/25 04:07:59;;;;;;;;;;;18.60;99.90;;;;;;5147600;27;19920;-72
2022/07/25 04:10:27;;;;;;;;;;;18.60;99.90;;;;;;5147422;27;19927;-71
2022/07/25 04:12:54;;;;;;;;;;;18.60;99.90;;;;;;5124147;28;19990;-71
2022/07/25 04:15:20;;;;;;;;;;;18.60;99.90;;;;;;5135414;27;19983;-71
2022/07/25 04:17:47;;;;;;;;;;;18.60;99.90;;;;;;5127256;28;19958;-71
2022/07/25 04:20:13;;;;;;;;;;;18.60;99.90;;;;;;5126993;28;19926;-71
2022/07/25 04:22:40;;;;;;;;;;;18.60;99.90;;;;;;5126462;28;19991;-71
2022/07/25 04:25:07;;;;;;;;;;;18.60;99.90;;;;;;5135734;27;19941;-71
2022/07/25 04:27:35;;;;;;;;;;;18.70;99.90;;;;;;5147514;27;19920;-73
2022/07/25 04:30:02;;;;;;;;;;;18.70;99.90;;;;;;5147473;27;19920;-71
2022/07/25 04:32:29;;;;;;;;;;;18.70;99.90;;;;;;5147175;27;19920;-71
2022/07/25 04:34:56;;;;;;;;;;;18.80;99.90;;;;;;5147076;27;19987;-72
2022/07/25 04:37:22;;;;;;;;;;;18.80;99.90;;;;;;5147233;27;19927;-71
2022/07/25 04:39:49;;;;;;;;;;;18.90;99.90;;;;;;5147055;27;19919;-72
2022/07/25 04:42:16;;;;;;;;;;;18.90;99.90;;;;;;5147048;27;20199;-72
2022/07/25 04:44:44;;;;;;;;;;;19.00;99.90;;;;;;5146485;27;19982;-72
2022/07/25 04:47:10;;;;;;;;;;;19.00;99.90;;;;;;5147225;27;19951;-72
2022/07/25 04:49:37;;;;;;;;;;;19.10;99.90;;;;;;5146966;27;19990;-72
2022/07/25 04:52:04;;;;;;;;;;;19.10;99.90;;;;;;5146930;27;19941;-72
2022/07/25 04:54:30;;;;;;;;;;;19.20;99.90;;;;;;5146258;27;19931;-72
2022/07/25 04:56:57;;;;;;;;;;;19.30;99.90;;;;;;5140708;27;19955;-72
2022/07/25 04:59:24;;;;;;;;;;;19.30;99.90;;;;;;5137877;27;19964;-72
2022/07/25 05:01:52;;;;;;;;;;;19.40;99.90;;;;;;5146175;27;19923;-71
2022/07/25 05:04:18;;;;;;;;;;;19.50;99.90;;;;;;5146654;27;20279;-71
2022/07/25 05:06:45;;;;;;;;;;;19.60;99.90;;;;;;5146394;27;19927;-72
2022/07/25 05:09:12;;;;;;;;;;;19.70;99.90;;;;;;5146086;27;19919;-71
2022/07/25 05:11:38;;;;;;;;;;;19.80;99.90;;;;;;5143954;27;19986;-71
2022/07/25 05:14:05;;;;;;;;;;;19.80;99.90;;;;;;5146006;27;19948;-71
2022/07/25 05:16:32;;;;;;;;;;;19.90;99.90;;;;;;5146628;27;19926;-71
2022/07/25 05:19:00;;;;;;;;;;;20.10;99.90;;;;;;5146413;27;19951;-71
2022/07/25 05:21:27;;;;;;;;;;;20.10;99.90;;;;;;5146574;27;19961;-72
2022/07/25 05:23:58;;;;;;;;;;;20.30;99.90;;;;;;5146694;27;20221;-72
2022/07/25 05:26:25;;;;;;;;;;;20.40;99.90;;;;;;5147512;27;19978;-72
2022/07/25 05:28:51;;;;;;;;;;;20.40;99.90;;;;;;5146399;27;19923;-71
2022/07/25 05:31:18;;;;;;;;;;;20.50;99.90;;;;;;5145520;27;20207;-71
2022/07/25 05:33:45;;;;;;;;;;;20.60;99.90;;;;;;5137977;27;20179;-71
2022/07/25 05:36:13;;;;;;;;;;;20.70;99.90;;;;;;5142885;27;19919;-71
2022/07/25 05:38:40;;;;;;;;;;;20.80;99.90;;;;;;5145835;27;19926;-71
2022/07/25 05:41:06;;;;;;;;;;;20.90;99.90;;;;;;5145162;27;19982;-71
2022/07/25 05:43:33;;;;;;;;;;;21.00;99.90;;;;;;5137014;27;19955;-71
2022/07/25 05:46:00;;;;;;;;;;;21.10;99.90;;;;;;5146048;27;19974;-71
2022/07/25 05:48:27;;;;;;;;;;;21.20;99.90;;;;;;5145828;27;19919;-71
2022/07/25 05:50:53;;;;;;;;;;;21.40;99.90;;;;;;5146049;27;19926;-71
2022/07/25 05:53:21;;;;;;;;;;;21.60;99.90;;;;;;5144070;27;19919;-71
2022/07/25 05:55:48;;;;;;;;;;;21.70;99.90;;;;;;5144845;27;19982;-71
2022/07/25 05:58:15;;;;;;;;;;;21.90;99.90;;;;;;5148347;27;19919;-68
2022/07/25 06:00:41;;;;;;;;;;;22.10;99.90;;;;;;5145413;27;19979;-70
2022/07/25 06:03:08;;;;;;;;;;;22.30;99.90;;;;;;5145156;27;19920;-71
2022/07/25 06:05:35;;;;;;;;;;;22.40;99.90;;;;;;5145537;27;19986;-69
2022/07/25 06:08:01;;;;;;;;;;;22.50;99.90;;;;;;5145296;27;19961;-72
2022/07/25 06:10:29;;;;;;;;;;;22.70;99.90;;;;;;5144593;27;19966;-68
2022/07/25 06:12:58;;;;;;;;;;;22.80;99.90;;;;;;5142560;27;19986;-71
2022/07/25 06:15:25;;;;;;;;;;;22.90;99.90;;;;;;5145483;27;19958;-71
2022/07/25 06:17:51;;;;;;;;;;;22.90;99.90;;;;;;5145278;27;20175;-71
2022/07/25 06:20:18;;;;;;;;;;;23.00;99.90;;;;;;5142816;27;19951;-70
2022/07/25 06:22:45;;;;;;;;;;;23.10;99.90;;;;;;5142270;27;19986;-71
2022/07/25 06:25:11;;;;;;;;;;;23.10;99.90;;;;;;5144379;27;19982;-71
2022/07/25 06:27:39;;;;;;;;;;;23.30;99.90;;;;;;5138773;27;20024;-71
2022/07/25 06:30:07;;;;;;;;;;;23.30;99.90;;;;;;5136705;27;20016;-71
2022/07/25 06:32:34;;;;;;;;;;;23.40;99.90;;;;;;5139012;27;19950;-71
2022/07/25 06:35:01;;;;;;;;;;;23.50;99.90;;;;;;5141509;27;19954;-71
2022/07/25 06:37:28;;;;;;;;;;;23.60;99.90;;;;;;5136566;27;19927;-71
2022/07/25 06:39:54;;;;;;;;;;;23.70;99.90;;;;;;5144718;27;19966;-71
2022/07/25 06:42:21;;;;;;;;;;;23.80;99.90;;;;;;5144642;27;20133;-71
2022/07/25 06:44:49;;;;;;;;;;;23.90;99.90;;;;;;5129042;27;19958;-71
2022/07/25 06:47:15;;;;;;;;;;;24.00;99.90;;;;;;5124086;28;19991;-71
2022/07/25 06:49:42;;;;;;;;;;;24.10;99.90;;;;;;5130085;27;20008;-71
2022/07/25 06:52:09;;;;;;;;;;;24.30;99.90;;;;;;5144449;27;19958;-71
2022/07/25 06:54:36;;;;;;;;;;;24.30;99.90;;;;;;5130584;27;19951;-72
2022/07/25 06:57:02;;;;;;;;;;;24.40;99.90;;;;;;5142635;27;19919;-72
2022/07/25 06:59:29;;;;;;;;;;;24.60;99.90;;;;;;5140407;27;19920;-72
2022/07/25 07:01:57;;;;;;;;;;;24.60;99.90;;;;;;5124128;28;19951;-72
2022/07/25 07:04:24;;;;;;;;;;;24.70;99.90;;;;;;5123394;28;19929;-72
2022/07/25 07:06:50;;;;;;;;;;;24.80;99.90;;;;;;5132675;27;19919;-71
2022/07/25 07:09:17;;;;;;;;;;;24.90;99.90;;;;;;5140482;27;20274;-72
2022/07/25 07:11:43;;;;;;;;;;;24.90;99.90;;;;;;5134248;27;19966;-72
2022/07/25 07:14:10;;;;;;;;;;;25.00;99.90;;;;;;5128947;27;19920;-72
2022/07/25 07:16:37;;;;;;;;;;;25.10;99.90;;;;;;5123910;28;19951;-72
2022/07/25 07:19:05;;;;;;;;;;;25.20;99.90;;;;;;5132118;27;19920;-72
2022/07/25 07:21:32;;;;;;;;;;;25.30;99.90;;;;;;5142786;27;19926;-72
2022/07/25 07:23:58;;;;;;;;;;;25.40;99.90;;;;;;5142796;27;19972;-73
2022/07/25 07:26:25;;;;;;;;;;;25.50;99.90;;;;;;5141332;27;19926;-72
2022/07/25 07:28:54;;;;;;;;;;;25.60;99.90;;;;;;5146538;27;19920;-72
2022/07/25 07:31:21;;;;;;;;;;;25.70;99.90;;;;;;5146401;27;19964;-72
2022/07/25 07:33:48;;;;;;;;;;;25.70;99.90;;;;;;5143081;27;19920;-72
2022/07/25 07:36:16;;;;;;;;;;;25.80;99.90;;;;;;5152836;27;20003;-72
2022/07/25 07:38:45;;;;;;;;;;;26.00;99.90;;;;;;5144619;27;19991;-71
2022/07/25 07:41:11;;;;;;;;;;;26.10;99.90;;;;;;5146244;27;20185;-72
2022/07/25 07:43:38;;;;;;;;;;;26.20;99.90;;;;;;5140444;27;19954;-71
2022/07/25 07:46:05;;;;;;;;;;;26.30;99.90;;;;;;5153317;27;19946;-71
2022/07/25 07:48:31;;;;;;;;;;;26.40;99.90;;;;;;5151635;27;20230;-73
2022/07/25 07:50:59;;;;;;;;;;;26.50;99.90;;;;;;5139114;27;19986;-73
2022/07/25 07:56:08;;;;;;;;;;;26.60;99.90;;;;;;5134084;27;19951;-73
2022/07/25 07:58:34;;;;;;;;;;;26.70;99.90;;;;;;5135184;27;19927;-72
2022/07/25 08:01:01;;;;;;;;;;;26.80;99.90;;;;;;5135311;27;19930;-72
2022/07/25 08:03:28;;;;;;;;;;;26.90;99.90;;;;;;5137994;27;19982;-72
2022/07/25 08:05:54;;;;;;;;;;;26.90;99.90;;;;;;5136798;27;19966;-73
2022/07/25 08:08:22;;;;;;;;;;;27.00;99.90;;;;;;5145574;27;20176;-72
2022/07/25 08:10:50;;;;;;;;;;;27.10;99.90;;;;;;5133362;27;19920;-71
2022/07/25 08:13:17;;;;;;;;;;;27.10;99.90;;;;;;5127043;28;19998;-72
2022/07/25 08:15:45;;;;;;;;;;;27.20;99.90;;;;;;5127405;28;19919;-72
2022/07/25 08:18:11;;;;;;;;;;;27.30;99.90;;;;;;5127211;28;19982;-72
2022/07/25 08:20:44;;;;;;;;;;;27.50;99.90;;;;;;5125064;28;19982;-71
2022/07/25 08:23:11;;;;;;;;;;;27.50;99.90;;;;;;5126917;28;19923;-72
2022/07/25 08:25:40;;;;;;;;;;;27.60;99.90;;;;;;5125536;28;19962;-73
2022/07/25 08:28:08;;;;;;;;;;;27.70;99.90;;;;;;5130106;27;19919;-72
2022/07/25 08:30:35;;;;;;;;;;;27.80;99.90;;;;;;5147622;27;19919;-72
2022/07/25 08:33:03;;;;;;;;;;;27.90;99.90;;;;;;5144317;27;19979;-73
2022/07/25 08:35:30;;;;;;;;;;;27.90;99.90;;;;;;5147904;27;19954;-73
2022/07/25 08:37:57;;;;;;;;;;;28.00;99.90;;;;;;5147097;27;19920;-73
2022/07/25 08:40:25;;;;;;;;;;;28.20;99.90;;;;;;5147342;27;19959;-73
2022/07/25 08:42:53;;;;;;;;;;;28.20;99.90;;;;;;5147185;27;20256;-73
2022/07/25 08:45:22;;;;;;;;;;;28.30;99.90;;;;;;5147616;27;19965;-73
2022/07/25 08:47:49;;;;;;;;;;;28.40;99.90;;;;;;5147563;27;19926;-73
2022/07/25 08:50:17;;;;;;;;;;;28.50;99.90;;;;;;5147378;27;19919;-73
2022/07/25 08:52:44;;;;;;;;;;;28.60;99.90;;;;;;5144550;27;20163;-72
2022/07/25 08:55:13;;;;;;;;;;;28.70;99.90;;;;;;5147323;27;19919;-72
2022/07/25 08:57:42;;;;;;;;;;;28.80;99.90;;;;;;5144090;27;20199;-72
2022/07/25 09:00:10;;;;;;;;;;;28.80;99.90;;;;;;5147028;27;20171;-71
2022/07/25 09:02:38;;;;;;;;;;;28.80;99.90;;;;;;5132896;27;20180;-71
2022/07/25 09:05:05;;;;;;;;;;;28.90;99.90;;;;;;5134180;27;19978;-72
2022/07/25 09:07:33;;;;;;;;;;;28.90;99.90;;;;;;5146945;27;19978;-71
2022/07/25 09:09:59;;;;;;;;;;;29.00;99.90;;;;;;5147062;27;19919;-72
2022/07/25 09:12:27;;;;;;;;;;;29.10;99.90;;;;;;5146583;27;19925;-71
2022/07/25 09:14:55;;;;;;;;;;;29.30;99.90;;;;;;5144426;27;20227;-72
2022/07/25 09:17:21;;;;;;;;;;;29.30;99.90;;;;;;5126135;28;19958;-71
2022/07/25 09:19:55;;;;;;;;;;;29.40;99.90;;;;;;5123594;28;19951;-72
2022/07/25 09:22:22;;;;;;;;;;;29.50;99.90;;;;;;5125931;28;19982;-72
2022/07/25 09:24:49;;;;;;;;;;;29.50;99.90;;;;;;5125742;28;19983;-71
2022/07/25 09:27:17;;;;;;;;;;;29.50;99.90;;;;;;5125674;28;19924;-71
2022/07/25 09:29:43;;;;;;;;;;;29.60;99.90;;;;;;5126253;28;19919;-72
2022/07/25 09:32:14;;;;;;;;;;;29.70;99.90;;;;;;5125758;28;19951;-72
2022/07/25 09:34:42;;;;;;;;;;;29.70;99.90;;;;;;5125435;28;19951;-73
2022/07/25 09:37:11;;;;;;;;;;;29.70;99.90;;;;;;5125930;28;19951;-71
2022/07/25 09:39:39;;;;;;;;;;;29.80;99.90;;;;;;5130568;28;19939;-72
2022/07/25 09:42:16;;;;;;;;;;;29.80;99.90;;;;;;5130378;28;20397;-73
2022/07/25 09:44:43;;;;;;;;;;;29.90;99.90;;;;;;5125144;28;19920;-72
2022/07/25 09:47:10;;;;;;;;;;;30.00;99.90;;;;;;5125189;28;19919;-71
2022/07/25 09:49:40;;;;;;;;;;;30.00;99.90;;;;;;5125035;28;19942;-71
2022/07/25 09:52:06;;;;;;;;;;;30.10;99.90;;;;;;5122182;28;20127;-69
2022/07/25 09:54:35;;;;;;;;;;;30.10;99.90;;;;;;5124167;28;19920;-70
2022/07/25 09:57:01;;;;;;;;;;;30.20;99.90;;;;;;5124655;28;19920;-69
2022/07/25 09:59:28;;;;;;;;;;;30.40;99.90;;;;;;5125406;28;19927;-70
2022/07/25 10:02:00;;;;;;;;;;;30.50;99.90;;;;;;5124955;28;20115;-68
2022/07/25 10:04:32;;;;;;;;;;;30.60;99.90;;;;;;5124716;28;19955;-70
2022/07/25 10:07:04;;;;;;;;;;;30.70;99.90;;;;;;5124278;28;19926;-69
2022/07/25 10:09:30;;;;;;;;;;;30.80;98.80;;;;;;5124770;28;19993;-71
2022/07/25 10:12:05;;;;;;;;;;;30.90;97.70;;;;;;5134942;27;19961;-71
2022/07/25 10:14:33;;;;;;;;;;;31.10;98.10;;;;;;5143798;27;19965;-71
2022/07/25 10:17:08;;;;;;;;;;;31.20;98.10;;;;;;5144750;27;19920;-70
2022/07/25 10:19:39;;;;;;;;;;;31.30;98.80;;;;;;5144936;27;19978;-69
2022/07/25 10:22:06;;;;;;;;;;;31.40;98.70;;;;;;5145301;27;19919;-70
2022/07/25 10:24:34;;;;;;;;;;;31.50;99.10;;;;;;5141943;27;19955;-69
2022/07/25 10:27:07;;;;;;;;;;;31.50;98.60;;;;;;5144872;27;19972;-69
2022/07/25 10:29:34;;;;;;;;;;;31.60;98.80;;;;;;5144631;27;19950;-69
2022/07/25 10:32:05;;;;;;;;;;;31.60;98.30;;;;;;5144929;27;19972;-72
2022/07/25 10:34:34;;;;;;;;;;;31.80;97.90;;;;;;5143670;27;20279;-71
2022/07/25 10:37:09;;;;;;;;;;;31.90;97.70;;;;;;5144703;27;19951;-72
2022/07/25 10:39:38;;;;;;;;;;;32.00;96.70;;;;;;5144357;27;19950;-69
2022/07/25 10:42:06;;;;;;;;;;;32.10;96.20;;;;;;5143660;27;19919;-70
2022/07/25 10:44:40;;;;;;;;;;;32.10;96.00;;;;;;5130997;27;19991;-70
2022/07/25 10:47:08;;;;;;;;;;;32.10;96.30;;;;;;5124175;28;19969;-72
2022/07/25 10:49:35;;;;;;;;;;;32.20;96.10;;;;;;5124142;28;20222;-70
2022/07/25 10:52:03;;;;;;;;;;;32.30;96.10;;;;;;5124581;28;19939;-69
2022/07/25 10:54:33;;;;;;;;;;;32.30;96.00;;;;;;5133327;27;19920;-71
2022/07/25 10:57:00;;;;;;;;;;;32.30;96.40;;;;;;5144379;27;19919;-72
2022/07/25 10:59:30;;;;;;;;;;;32.50;96.20;;;;;;5144674;27;19958;-69
2022/07/25 11:01:56;;;;;;;;;;;32.60;96.30;;;;;;5144995;27;19919;-68
2022/07/25 11:04:23;;;;;;;;;;;32.80;96.50;;;;;;5143918;27;20222;-70
2022/07/25 11:06:50;;;;;;;;;;;32.90;95.60;;;;;;5141360;27;19926;-70
2022/07/25 11:09:17;;;;;;;;;;;33.00;95.80;;;;;;5144575;27;19973;-70
2022/07/25 11:11:47;;;;;;;;;;;33.10;94.80;;;;;;5143540;27;19968;-71
2022/07/25 11:14:15;;;;;;;;;;;33.10;94.30;;;;;;5125640;28;19919;-71
2022/07/25 11:16:43;;;;;;;;;;;33.30;94.10;;;;;;5124284;27;19920;-71
2022/07/25 11:19:17;;;;;;;;;;;33.40;94.30;;;;;;5132812;28;19955;-71
2022/07/25 11:21:44;;;;;;;;;;;33.60;91.80;;;;;;5144198;28;19926;-71
2022/07/25 11:24:11;;;;;;;;;;;33.70;91.50;;;;;;5126058;28;19919;-71
2022/07/25 11:26:44;;;;;;;;;;;33.80;90.70;;;;;;5120448;28;19951;-71
2022/07/25 11:29:17;;;;;;;;;;;33.80;90.90;;;;;;5124195;28;19928;-71
2022/07/25 11:31:52;;;;;;;;;;;34.00;90.00;;;;;;5123913;28;19927;-70
2022/07/25 11:34:19;;;;;;;;;;;34.10;90.30;;;;;;5125370;28;19991;-71
2022/07/25 11:36:46;;;;;;;;;;;34.20;89.20;;;;;;5143884;28;20175;-69
2022/07/25 11:39:12;;;;;;;;;;;34.30;86.30;;;;;;5133390;28;19983;-70
2022/07/25 11:41:39;;;;;;;;;;;34.40;86.40;;;;;;5124437;28;19920;-69
2022/07/25 11:44:06;;;;;;;;;;;34.50;85.00;;;;;;5134759;28;19947;-69
2022/07/25 11:46:40;;;;;;;;;;;34.60;85.30;;;;;;5123321;28;20253;-70
2022/07/25 11:49:08;;;;;;;;;;;34.60;82.40;;;;;;5140661;28;19969;-70
2022/07/25 11:51:37;;;;;;;;;;;34.60;86.30;;;;;;5142589;28;19950;-70
2022/07/25 11:54:07;;;;;;;;;;;34.70;87.20;;;;;;5138535;28;19982;-69
2022/07/25 11:56:37;;;;;;;;;;;34.70;83.20;;;;;;5130566;28;19926;-70
2022/07/25 11:59:04;;;;;;;;;;;34.80;80.70;;;;;;5124191;28;19961;-71
2022/07/25 12:01:34;;;;;;;;;;;34.90;79.10;;;;;;5123438;28;20179;-72
2022/07/25 12:04:09;;;;;;;;;;;35.00;78.60;;;;;;5142064;28;19959;-71
2022/07/25 12:06:35;;;;;;;;;;;35.10;79.70;;;;;;5132788;28;20157;-72
2022/07/25 12:09:09;;;;;;;;;;;35.10;78.50;;;;;;5125746;28;19962;-73
2022/07/25 12:11:36;;;;;;;;;;;35.20;77.40;;;;;;5140742;27;20207;-73
2022/07/25 12:14:03;;;;;;;;;;;35.20;75.60;;;;;;5134545;27;20170;-71
2022/07/25 12:16:31;;;;;;;;;;;35.30;75.30;;;;;;5136142;27;19920;-73
2022/07/25 12:18:57;;;;;;;;;;;35.30;73.70;;;;;;5134258;27;19920;-72
2022/07/25 12:21:26;;;;;;;;;;;35.40;72.00;;;;;;5143414;27;19920;-72
2022/07/25 12:23:53;;;;;;;;;;;35.40;71.10;;;;;;5146910;27;19919;-72
2022/07/25 12:26:20;;;;;;;;;;;35.30;71.00;;;;;;5127247;28;20177;-72
2022/07/25 12:28:47;;;;;;;;;;;35.50;69.50;;;;;;5126844;28;19920;-72
2022/07/25 12:31:13;;;;;;;;;;;35.60;72.20;;;;;;5126741;27;20357;-73
2022/07/25 12:33:40;;;;;;;;;;;35.70;72.10;;;;;;5132619;27;19919;-73
2022/07/25 12:36:07;;;;;;;;;;;35.80;72.80;;;;;;5137434;27;19920;-73
2022/07/25 12:38:35;;;;;;;;;;;35.80;72.70;;;;;;5147106;27;19977;-74
2022/07/25 12:41:02;;;;;;;;;;;35.90;72.40;;;;;;5143486;27;19973;-73
2022/07/25 12:43:28;;;;;;;;;;;36.00;72.90;;;;;;5146212;27;20195;-73
2022/07/25 12:45:55;;;;;;;;;;;36.10;72.10;;;;;;5146895;27;19999;-73
2022/07/25 12:48:22;;;;;;;;;;;36.30;71.90;;;;;;5137239;27;19920;-73
2022/07/25 12:50:48;;;;;;;;;;;36.40;72.80;;;;;;5126646;28;20184;-73
2022/07/25 12:53:15;;;;;;;;;;;36.60;71.10;;;;;;5139363;27;20195;-72
2022/07/25 12:55:43;;;;;;;;;;;36.70;70.40;;;;;;5134039;27;19920;-73
2022/07/25 12:58:11;;;;;;;;;;;36.50;67.60;;;;;;5143200;27;19950;-72
2022/07/25 13:00:38;;;;;;;;;;;36.50;69.10;;;;;;5137353;27;19926;-72
2022/07/25 13:03:05;;;;;;;;;;;36.50;68.40;;;;;;5145831;27;20304;-72
2022/07/25 13:05:31;;;;;;;;;;;36.50;69.40;;;;;;5141224;27;19920;-73
2022/07/25 13:07:58;;;;;;;;;;;36.50;68.50;;;;;;5125557;28;20175;-73
2022/07/25 13:10:25;;;;;;;;;;;36.40;68.10;;;;;;5125289;28;20187;-73
2022/07/25 13:12:53;;;;;;;;;;;36.40;68.40;;;;;;5125095;28;20110;-73
2022/07/25 13:15:22;;;;;;;;;;;36.40;69.10;;;;;;5127974;27;19959;-73
2022/07/25 13:17:49;;;;;;;;;;;36.40;69.10;;;;;;5141519;27;19919;-74
2022/07/25 13:20:16;;;;;;;;;;;36.50;68.80;;;;;;5142528;27;19919;-73
2022/07/25 13:22:44;;;;;;;;;;;36.40;69.50;;;;;;5139260;27;19927;-73
2022/07/25 13:25:10;;;;;;;;;;;36.60;69.40;;;;;;5123959;27;19928;-73
2022/07/25 13:27:38;;;;;;;;;;;36.80;68.20;;;;;;5137808;27;19982;-73
2022/07/25 13:30:07;;;;;;;;;;;36.90;68.70;;;;;;5132819;27;19923;-73
2022/07/25 13:32:34;;;;;;;;;;;37.10;68.70;;;;;;5137997;27;19951;-73
2022/07/25 13:35:01;;;;;;;;;;;37.30;67.70;;;;;;5138717;27;20254;-73
2022/07/25 13:37:28;;;;;;;;;;;37.40;67.50;;;;;;5128930;27;19947;-73
2022/07/25 13:39:54;;;;;;;;;;;37.40;67.20;;;;;;5135448;27;19990;-74
2022/07/25 13:42:21;;;;;;;;;;;37.60;67.30;;;;;;5142423;27;19950;-73
2022/07/25 13:44:48;;;;;;;;;;;37.70;66.20;;;;;;5129616;27;19926;-73
2022/07/25 13:47:16;;;;;;;;;;;37.80;66.80;;;;;;5133702;27;19919;-73
2022/07/25 13:49:42;;;;;;;;;;;37.70;66.90;;;;;;5145661;27;19990;-74
2022/07/25 13:52:09;;;;;;;;;;;37.40;66.50;;;;;;5143351;27;19919;-76
2022/07/25 13:54:36;;;;;;;;;;;37.00;66.50;;;;;;5149385;27;19954;-74
2022/07/25 13:57:03;;;;;;;;;;;36.80;66.80;;;;;;5137495;27;19931;-74
2022/07/25 13:59:29;;;;;;;;;;;36.70;68.20;;;;;;5128536;27;19925;-74
2022/07/25 14:01:56;;;;;;;;;;;36.80;67.60;;;;;;5132517;27;20264;-74
2022/07/25 14:04:24;;;;;;;;;;;37.00;68.00;;;;;;5134488;27;19991;-74
2022/07/25 14:06:51;;;;;;;;;;;37.00;67.40;;;;;;5142013;27;19947;-74
2022/07/25 14:09:19;;;;;;;;;;;37.10;67.80;;;;;;5144442;27;20089;-74
2022/07/25 14:11:45;;;;;;;;;;;36.90;67.30;;;;;;5139383;27;19919;-74
2022/07/25 14:14:12;;;;;;;;;;;36.60;68.90;;;;;;5139538;27;19994;-74
2022/07/25 14:16:39;;;;;;;;;;;36.20;69.00;;;;;;5145095;27;19943;-72
2022/07/25 14:19:06;;;;;;;;;;;36.20;69.40;;;;;;5145304;27;19959;-73